Flight Track Log - Related Links

Times and Time Zones

All times are in EDT time to prevent confusion due to time zone crossing. See the N7988K flight status page for this flight to view local times or setup timezone preferences in your user account.

Time Position Orientation Groundspeed Altitude Reporting Facility
EDT Latitude Longitude Course Direction KTS MPH feet Rate Location/Type
Sun 05:33:32 PM 34.3735 -79.7550 352° North  Level FlightAware Approximate
Sun 05:34:32 PM 34.4149 -79.7624 352° North  Level FlightAware Approximate
Sun 05:35:32 PM 34.4563 -79.7698 352° North  Level FlightAware Approximate
Sun 05:36:32 PM 34.4973 -79.7743 352° North  Level FlightAware Approximate
Sun 05:37:32 PM 34.5384 -79.7840 352° North  Level FlightAware Approximate
Sun 05:38:32 PM 34.5798 -79.7914 352° North  Level FlightAware Approximate
Sun 05:39:32 PM 34.6213 -79.7988 352° North  Level FlightAware Approximate
Sun 05:40:32 PM 34.6627 -79.8062 352° North  Level FlightAware Approximate
Sun 05:41:32 PM 34.7041 -79.8136 352° North  Level FlightAware Approximate
Sun 05:42:32 PM 34.7456 -79.8210 352° North  Level FlightAware Approximate
Sun 05:43:32 PM 34.7872 -79.8174 352° North  Level FlightAware Approximate
Sun 05:44:32 PM 34.8287 -79.8250 351° North  Level FlightAware Approximate
Sun 05:45:32 PM 34.8701 -79.8326 351° North  Level FlightAware Approximate
Sun 05:46:32 PM 34.9115 -79.8401 351° North  Level FlightAware Approximate
Sun 05:47:32 PM 34.9529 -79.8477 351° North  Level FlightAware Approximate
Sun 05:48:32 PM 34.9943 -79.8553 351° North  Level FlightAware Approximate
Sun 05:49:32 PM 35.0358 -79.8630 351° North  Level FlightAware Approximate
Sun 05:50:32 PM 35.0770 -79.8717 351° North  Level FlightAware Approximate
Sun 05:51:32 PM 35.1184 -79.8793 351° North  Level FlightAware Approximate
Sun 05:52:32 PM 35.1599 -79.8869 351° North  Level FlightAware Approximate
Sun 05:53:32 PM 35.2013 -79.8946 351° North  Level FlightAware Approximate
Sun 05:54:32 PM 35.2427 -79.9022 351° North  Level FlightAware Approximate
Sun 05:55:32 PM 35.2841 -79.9098 351° North  Level FlightAware Approximate
Sun 05:56:32 PM 35.3254 -79.9183 351° North  Level FlightAware Approximate
Sun 05:57:32 PM 35.3668 -79.9259 351° North  Level FlightAware Approximate
Sun 05:58:32 PM 35.4083 -79.9336 351° North  Level FlightAware Approximate
Sun 05:59:32 PM 35.4497 -79.9413 351° North  Level FlightAware Approximate
Sun 06:00:32 PM 35.4911 -79.9489 351° North  Level FlightAware Approximate
Sun 06:01:32 PM 35.5325 -79.9566 351° North  Level FlightAware Approximate
Sun 06:02:32 PM 35.5739 -79.9643 351° North  Level FlightAware Approximate
Sun 06:03:32 PM 35.6154 -79.9720 351° North  Level FlightAware Approximate
Sun 06:04:32 PM 35.6568 -79.9797 351° North  Level FlightAware Approximate
Sun 06:05:32 PM 35.6982 -79.9874 351° North  Level FlightAware Approximate
Sun 06:06:32 PM 35.7396 -79.9951 351° North  Level FlightAware Approximate
Sun 06:07:32 PM 35.7810 -80.0028 351° North  Level FlightAware Approximate
Sun 06:08:32 PM 35.8224 -80.0105 351° North  Level FlightAware Approximate
Sun 06:09:32 PM 35.8638 -80.0183 351° North  Level FlightAware Approximate
Sun 06:10:32 PM 35.9052 -80.0260 351° North  Level FlightAware Approximate
Sun 06:11:32 PM 35.9466 -80.0338 351° North  Level FlightAware Approximate
Sun 06:12:32 PM 35.9880 -80.0415 351° North  Level FlightAware Approximate
Sun 06:13:32 PM 36.0295 -80.0493 351° North  Level FlightAware Approximate
Sun 06:14:32 PM 36.0709 -80.0571 351° North  Level FlightAware Approximate
Sun 06:15:32 PM 36.1123 -80.0649 351° North  Level FlightAware Approximate
Sun 06:16:32 PM 36.1537 -80.0727 351° North  Level FlightAware Approximate
Sun 06:17:32 PM 36.1951 -80.0805 351° North  Level FlightAware Approximate
Sun 06:18:32 PM 36.2365 -80.0883 351° North  Level FlightAware Approximate
Sun 06:19:32 PM 36.2779 -80.0961 351° North  Level FlightAware Approximate
Sun 06:20:32 PM 36.3193 -80.1039 351° North  Level FlightAware Approximate
Sun 06:21:32 PM 36.3607 -80.1118 351° North  Level FlightAware Approximate
Sun 06:22:32 PM 36.4021 -80.1196 351° North  Level FlightAware Approximate
Sun 06:23:32 PM 36.4435 -80.1275 351° North  Level FlightAware Approximate
Sun 06:24:32 PM 36.4849 -80.1353 351° North  Level FlightAware Approximate
Sun 06:25:32 PM 36.5263 -80.1432 351° North  Level FlightAware Approximate
Sun 06:26:32 PM 36.5677 -80.1511 351° North  Level FlightAware Approximate
Sun 06:27:32 PM 36.6091 -80.1590 351° North  Level FlightAware Approximate
Sun 06:28:32 PM 36.6505 -80.1668 351° North  Level FlightAware Approximate
Sun 06:29:32 PM 36.6919 -80.1748 351° North  Level FlightAware Approximate
Sun 06:30:32 PM 36.7327 -80.1864 352° North  Level FlightAware Approximate
Sun 06:31:32 PM 36.7741 -80.1941 352° North  Level FlightAware Approximate
Sun 06:32:32 PM 36.8155 -80.2019 352° North  Level FlightAware Approximate
Sun 06:33:32 PM 36.8570 -80.2097 352° North  Level FlightAware Approximate
Sun 06:34:32 PM 36.8984 -80.2175 352° North  Level FlightAware Approximate
Sun 06:35:32 PM 36.9398 -80.2253 352° North  Level FlightAware Approximate
Sun 06:36:32 PM 36.9812 -80.2331 352° North  Level FlightAware Approximate
Sun 06:37:32 PM 37.0226 -80.2409 352° North  Level FlightAware Approximate
Sun 06:38:32 PM 37.0641 -80.2487 352° North  Level FlightAware Approximate
Sun 06:39:32 PM 37.1055 -80.2565 353° North  Level FlightAware Approximate
Sun 06:40:32 PM 37.1469 -80.2644 353° North  Level FlightAware Approximate
Sun 06:41:32 PM 37.1883 -80.2722 354° North  Level FlightAware Approximate
Sun 06:42:32 PM 37.2297 -80.2801 359° North  Level FlightAware Approximate
Sun 06:43:32 PM 37.2711 -80.2879 160° South  Level FlightAware Approximate
Sun 06:44:32 PM 37.3125 -80.2958 168° South  Level FlightAware Approximate
Sun 06:45:17 PM 37.2556 -80.2808 353° North 157 181 9,100  Level Washington Center
Sun 06:48:16 PM 37.3861 -80.3022 348° North 157 181 7,700 -475 Descending Washington Center
Sun 06:49:17 PM 37.4253 -80.3125 349° North 157 181 7,200 -492 Descending Washington Center
Sun 06:50:18 PM 37.4689 -80.3231 349° North 157 181 6,700 -492 Descending Washington Center
Sun 06:51:19 PM 37.5100 -80.3333 346° North 157 181 6,200 -356 Descending Washington Center
Sun 06:52:16 PM 37.5514 -80.3464 347° North 157 181 6,000 -102 Descending Washington Center
Sun 06:53:17 PM 37.5986 -80.3597 349° North 157 181 6,000 49 Level Washington Center
Sun 06:54:18 PM 37.6422 -80.3706 331° Northwest 162 186 6,100 -101 Climbing Washington Center
Sun 06:55:16 PM 37.6828 -80.3992 320° Northwest 162 186 5,800 -454 Descending Washington Center
Sun 06:56:17 PM 37.7228 -80.4411 315° West 179 206 5,200 -800 Descending Washington Center
Sun 06:57:16 PM 37.7606 -80.4883 24° Northeast 190 219 4,200 -694 Descending Washington Center
Sun 06:58:18 PM 37.7944 -80.4694 25° Northeast 154 177 3,800 -400 Descending Washington Center
Sun 06:59:16 PM 37.8225 -80.4528 25° Northeast 112 129 3,400 -414 Descending Washington Center

Login

Don't have an account? Register now (free) for customized features, flight alerts, and more!